Time;durP1;ratioP1;P1;durP2;ratioP2;P2;SDS_P1;SDS_P2;PMS_P1;PMS_P2;Temp;Humidity;BMP_temperature;BMP_pressure;BME280_temperature;BME280_humidity;BME280_pressure;Samples;Min_cycle;Max_cycle;Signal;HPM_P1;HPM_P2
2022/09/19 00:01:11;;;;;;;14.23;1.92;;;;;;;;;;5067512;28;20141;-64
2022/09/19 00:03:38;;;;;;;9.02;1.58;;;;;;;;;;5055794;28;20033;-64
2022/09/19 00:06:05;;;;;;;10.45;1.90;;;;;;;;;;5070381;28;20043;-64
2022/09/19 00:08:31;;;;;;;8.60;1.50;;;;;;;;;;5068951;28;20045;-64
2022/09/19 00:11:00;;;;;;;6.70;1.27;;;;;;;;;;5070188;28;20055;-64
2022/09/19 00:13:26;;;;;;;7.72;1.40;;;;;;;;;;5071119;28;20038;-64
2022/09/19 00:15:52;;;;;;;6.43;1.50;;;;;;;;;;5069705;28;20040;-64
2022/09/19 00:18:18;;;;;;;9.07;1.33;;;;;;;;;;5083938;22;20033;-64
2022/09/19 00:20:47;;;;;;;7.43;1.25;;;;;;;;;;5088473;28;20056;-64
2022/09/19 00:26:02;;;;;;;3.92;1.30;;;;;;;;;;5089990;28;20036;-64
2022/09/19 00:28:29;;;;;;;8.88;1.45;;;;;;;;;;5086480;28;20086;-64
2022/09/19 00:30:56;;;;;;;10.88;1.65;;;;;;;;;;5090540;28;20051;-64
2022/09/19 00:33:22;;;;;;;10.65;1.98;;;;;;;;;;5094777;28;20054;-64
2022/09/19 00:35:54;;;;;;;12.00;2.03;;;;;;;;;;5092317;28;20097;-64
2022/09/19 00:38:21;;;;;;;11.95;1.73;;;;;;;;;;5074512;28;20036;-64
2022/09/19 00:40:47;;;;;;;8.68;1.75;;;;;;;;;;5093006;28;20036;-64
2022/09/19 00:43:14;;;;;;;9.43;1.38;;;;;;;;;;5093114;28;20039;-64
2022/09/19 00:45:40;;;;;;;9.50;1.60;;;;;;;;;;5073055;28;20421;-64
2022/09/19 00:48:06;;;;;;;8.70;1.55;;;;;;;;;;5094937;28;20129;-64
2022/09/19 00:50:32;;;;;;;9.20;1.73;;;;;;;;;;5092631;28;20039;-64
2022/09/19 00:53:01;;;;;;;11.90;1.80;;;;;;;;;;5094232;28;20043;-64
2022/09/19 00:55:27;;;;;;;6.75;1.33;;;;;;;;;;5092588;28;20048;-64
2022/09/19 00:58:02;;;;;;;9.48;1.45;;;;;;;;;;5065490;28;20146;-65
2022/09/19 01:00:28;;;;;;;9.93;1.65;;;;;;;;;;5089672;28;20174;-64
2022/09/19 01:02:54;;;;;;;8.57;1.38;;;;;;;;;;5099091;28;20032;-64
2022/09/19 01:05:27;;;;;;;10.45;1.85;;;;;;;;;;5091332;28;20051;-64
2022/09/19 01:07:53;;;;;;;6.50;1.20;;;;;;;;;;5082374;28;20037;-64
2022/09/19 01:10:25;;;;;;;10.00;1.40;;;;;;;;;;5091712;28;20036;-63
2022/09/19 01:12:51;;;;;;;9.77;1.58;;;;;;;;;;5091628;28;20036;-64
2022/09/19 01:15:19;;;;;;;10.93;1.98;;;;;;;;;;5093885;28;20044;-64
2022/09/19 01:17:46;;;;;;;12.75;1.60;;;;;;;;;;5101091;28;20043;-64
2022/09/19 01:20:27;;;;;;;12.95;1.75;;;;;;;;;;5094851;28;20547;-64
2022/09/19 01:22:53;;;;;;;8.93;1.63;;;;;;;;;;5091056;28;20036;-64
2022/09/19 01:25:19;;;;;;;12.10;1.90;;;;;;;;;;5093411;28;20536;-64
2022/09/19 01:28:05;;;;;;;12.40;1.83;;;;;;;;;;5086129;28;20040;-64
2022/09/19 01:30:33;;;;;;;8.07;1.85;;;;;;;;;;5093393;28;20125;-64
2022/09/19 01:33:09;;;;;;;11.32;1.50;;;;;;;;;;5072831;28;20043;-63
2022/09/19 01:35:39;;;;;;;10.75;2.22;;;;;;;;;;5084648;28;20036;-64
2022/09/19 01:38:08;;;;;;;9.00;1.50;;;;;;;;;;5093155;28;20042;-64
2022/09/19 01:40:35;;;;;;;7.65;1.55;;;;;;;;;;5088258;28;20040;-64
2022/09/19 01:43:01;;;;;;;14.25;1.40;;;;;;;;;;5092630;28;20038;-64
2022/09/19 01:45:36;;;;;;;8.35;1.58;;;;;;;;;;5093351;28;20404;-64
2022/09/19 01:48:06;;;;;;;8.23;1.50;;;;;;;;;;5072910;28;20040;-64
2022/09/19 01:50:45;;;;;;;10.32;1.70;;;;;;;;;;5086291;28;20043;-64
2022/09/19 01:53:11;;;;;;;10.85;1.42;;;;;;;;;;5092978;28;20036;-64
2022/09/19 01:55:39;;;;;;;9.05;1.40;;;;;;;;;;5091697;28;20569;-64
2022/09/19 01:58:15;;;;;;;6.95;1.40;;;;;;;;;;5088703;28;20036;-64
2022/09/19 02:00:45;;;;;;;7.40;1.42;;;;;;;;;;5080810;28;20743;-64
2022/09/19 02:03:11;;;;;;;10.98;1.60;;;;;;;;;;5076866;28;20378;-64
2022/09/19 02:05:43;;;;;;;10.23;1.70;;;;;;;;;;5084084;28;20089;-64
2022/09/19 02:08:19;;;;;;;9.00;1.42;;;;;;;;;;5088836;28;20083;-64
2022/09/19 02:10:48;;;;;;;9.82;2.45;;;;;;;;;;5073810;28;20039;-64
2022/09/19 02:13:16;;;;;;;15.02;1.60;;;;;;;;;;5089854;28;20044;-64
2022/09/19 02:15:46;;;;;;;11.13;2.00;;;;;;;;;;5092256;28;20118;-64
2022/09/19 02:18:20;;;;;;;13.75;1.98;;;;;;;;;;5099805;28;20035;-64
2022/09/19 02:20:47;;;;;;;12.18;1.83;;;;;;;;;;5087254;28;20065;-64
2022/09/19 02:23:17;;;;;;;9.27;1.83;;;;;;;;;;5090151;28;20090;-64
2022/09/19 02:25:45;;;;;;;11.63;1.83;;;;;;;;;;5073821;28;20048;-64
2022/09/19 02:28:14;;;;;;;10.68;1.70;;;;;;;;;;5092232;28;20100;-64
2022/09/19 02:30:41;;;;;;;11.00;1.80;;;;;;;;;;5069068;28;20039;-64
2022/09/19 02:33:07;;;;;;;15.27;2.33;;;;;;;;;;5089131;28;20583;-64
2022/09/19 02:35:38;;;;;;;12.48;2.13;;;;;;;;;;5092147;28;20040;-64
2022/09/19 02:38:16;;;;;;;14.25;1.85;;;;;;;;;;5090096;28;20036;-64
2022/09/19 02:40:44;;;;;;;14.02;1.88;;;;;;;;;;5071716;28;20032;-64
2022/09/19 02:43:18;;;;;;;11.98;1.88;;;;;;;;;;5071737;28;20425;-64
2022/09/19 02:45:46;;;;;;;12.43;2.00;;;;;;;;;;5082115;28;20048;-64
2022/09/19 02:48:18;;;;;;;16.88;1.88;;;;;;;;;;5089732;28;20036;-64
2022/09/19 02:50:47;;;;;;;10.43;1.92;;;;;;;;;;5088582;28;20389;-64
2022/09/19 02:53:18;;;;;;;15.95;1.83;;;;;;;;;;5091813;28;20036;-63
2022/09/19 02:55:48;;;;;;;17.85;2.17;;;;;;;;;;5090757;28;20500;-64
2022/09/19 02:58:16;;;;;;;12.02;2.55;;;;;;;;;;5087368;28;20131;-64
2022/09/19 03:00:46;;;;;;;15.20;1.85;;;;;;;;;;5092254;28;20555;-64
2022/09/19 03:06:05;;;;;;;19.15;2.28;;;;;;;;;;5090120;28;20059;-64
2022/09/19 03:08:36;;;;;;;11.95;2.30;;;;;;;;;;5090574;28;20047;-64
2022/09/19 03:11:06;;;;;;;11.88;2.03;;;;;;;;;;5090885;28;20076;-64
2022/09/19 03:13:33;;;;;;;14.48;2.40;;;;;;;;;;5083063;28;20044;-64
2022/09/19 03:16:14;;;;;;;13.98;1.73;;;;;;;;;;5089601;28;20040;-64
2022/09/19 03:18:41;;;;;;;11.55;2.05;;;;;;;;;;5084266;28;20556;-64
2022/09/19 03:21:08;;;;;;;18.00;2.05;;;;;;;;;;5090159;28;20115;-64
2022/09/19 03:23:49;;;;;;;13.43;2.00;;;;;;;;;;5091372;28;20041;-64
2022/09/19 03:26:18;;;;;;;14.30;2.00;;;;;;;;;;5052515;28;20047;-64
2022/09/19 03:28:45;;;;;;;15.43;2.05;;;;;;;;;;5086756;28;20040;-64
2022/09/19 03:31:11;;;;;;;12.50;1.90;;;;;;;;;;5088319;28;20043;-64
2022/09/19 03:33:39;;;;;;;10.15;1.83;;;;;;;;;;5091322;28;20043;-64
2022/09/19 03:36:08;;;;;;;7.15;1.90;;;;;;;;;;5088895;28;20047;-64
2022/09/19 03:38:40;;;;;;;13.10;2.30;;;;;;;;;;5082875;28;20036;-64
2022/09/19 03:41:06;;;;;;;14.18;1.90;;;;;;;;;;5089948;28;20082;-64
2022/09/19 03:43:32;;;;;;;14.48;1.75;;;;;;;;;;5059915;28;20039;-64
2022/09/19 03:45:58;;;;;;;8.55;1.60;;;;;;;;;;5087300;28;20044;-63
2022/09/19 03:48:26;;;;;;;10.27;1.80;;;;;;;;;;5087754;28;20051;-63
2022/09/19 03:50:52;;;;;;;10.98;1.90;;;;;;;;;;5073478;28;20062;-64
2022/09/19 03:53:19;;;;;;;10.63;1.80;;;;;;;;;;5091260;28;20505;-64
2022/09/19 03:55:46;;;;;;;15.02;2.10;;;;;;;;;;5089699;28;20050;-63
2022/09/19 03:58:12;;;;;;;16.88;2.83;;;;;;;;;;5089103;28;20489;-64
2022/09/19 04:00:38;;;;;;;11.15;2.00;;;;;;;;;;5081747;28;20064;-64
2022/09/19 04:03:04;;;;;;;14.00;1.63;;;;;;;;;;5082515;28;20044;-63
2022/09/19 04:05:32;;;;;;;15.32;2.20;;;;;;;;;;5087993;28;20044;-63
2022/09/19 04:07:58;;;;;;;7.43;1.77;;;;;;;;;;5092414;28;20044;-63
2022/09/19 04:10:26;;;;;;;9.90;1.40;;;;;;;;;;5071197;28;20049;-63
2022/09/19 04:12:52;;;;;;;8.57;1.55;;;;;;;;;;5087350;28;20036;-64
2022/09/19 04:15:18;;;;;;;9.50;1.95;;;;;;;;;;5090909;28;20101;-64
2022/09/19 04:17:44;;;;;;;11.23;1.80;;;;;;;;;;5100362;28;20043;-64
2022/09/19 04:20:10;;;;;;;15.98;2.20;;;;;;;;;;5092624;28;20048;-64
2022/09/19 04:22:39;;;;;;;12.23;2.22;;;;;;;;;;5093367;28;20044;-64
2022/09/19 04:25:10;;;;;;;9.75;1.83;;;;;;;;;;5092713;28;20072;-64
2022/09/19 04:27:37;;;;;;;11.43;1.83;;;;;;;;;;5088619;28;20490;-64
2022/09/19 04:30:03;;;;;;;10.15;1.60;;;;;;;;;;5100400;28;20089;-64
2022/09/19 04:32:30;;;;;;;9.95;1.80;;;;;;;;;;5099872;28;20036;-64
2022/09/19 04:34:57;;;;;;;12.40;2.15;;;;;;;;;;5090075;28;20048;-64
2022/09/19 04:37:24;;;;;;;13.02;2.03;;;;;;;;;;5092325;28;20036;-64
2022/09/19 04:39:50;;;;;;;10.02;1.67;;;;;;;;;;5091676;28;20072;-64
2022/09/19 04:42:16;;;;;;;11.90;1.63;;;;;;;;;;5093581;28;20086;-64
2022/09/19 04:44:42;;;;;;;13.63;1.95;;;;;;;;;;5100090;28;20043;-64
2022/09/19 04:47:10;;;;;;;14.25;2.60;;;;;;;;;;5083462;28;20044;-64
2022/09/19 04:49:39;;;;;;;12.50;2.00;;;;;;;;;;5092231;28;20051;-64
2022/09/19 04:52:06;;;;;;;10.95;1.80;;;;;;;;;;5094357;28;20051;-64
2022/09/19 04:54:37;;;;;;;12.18;1.73;;;;;;;;;;5092431;28;20044;-64
2022/09/19 04:57:06;;;;;;;9.30;1.88;;;;;;;;;;5094217;28;20401;-64
2022/09/19 04:59:33;;;;;;;11.85;2.25;;;;;;;;;;5098099;28;20084;-64
2022/09/19 05:02:01;;;;;;;9.77;1.60;;;;;;;;;;5092418;28;20707;-64
2022/09/19 05:04:27;;;;;;;12.45;2.05;;;;;;;;;;5086576;28;20054;-63
2022/09/19 05:06:53;;;;;;;11.73;1.73;;;;;;;;;;5094112;28;20089;-64
2022/09/19 05:09:22;;;;;;;8.25;1.67;;;;;;;;;;5091247;28;20036;-64
2022/09/19 05:11:49;;;;;;;13.90;1.95;;;;;;;;;;5093641;28;20114;-64
2022/09/19 05:14:16;;;;;;;11.60;2.35;;;;;;;;;;5096129;28;20028;-64
2022/09/19 05:16:42;;;;;;;10.98;1.80;;;;;;;;;;5099705;28;20517;-64
2022/09/19 05:19:08;;;;;;;12.80;1.73;;;;;;;;;;5091882;28;20043;-64
2022/09/19 05:21:34;;;;;;;10.27;1.67;;;;;;;;;;5094040;28;20051;-64
2022/09/19 05:24:01;;;;;;;9.57;1.65;;;;;;;;;;5090786;28;20119;-64
2022/09/19 05:26:27;;;;;;;13.05;1.77;;;;;;;;;;5093582;28;20040;-64
2022/09/19 05:28:54;;;;;;;11.18;1.92;;;;;;;;;;5083223;28;20044;-64
2022/09/19 05:31:20;;;;;;;15.60;2.00;;;;;;;;;;5074680;28;20135;-64
2022/09/19 05:33:46;;;;;;;16.38;1.95;;;;;;;;;;5093669;28;20072;-64
2022/09/19 05:36:13;;;;;;;12.75;2.00;;;;;;;;;;5091139;28;20493;-64
2022/09/19 05:38:39;;;;;;;14.50;1.83;;;;;;;;;;5093215;28;20130;-64
2022/09/19 05:41:05;;;;;;;12.98;2.20;;;;;;;;;;5092411;28;20058;-64
2022/09/19 05:43:32;;;;;;;14.38;2.00;;;;;;;;;;5096287;28;20040;-64
2022/09/19 05:45:59;;;;;;;8.90;1.60;;;;;;;;;;5091670;28;20043;-64
2022/09/19 05:48:25;;;;;;;10.35;1.63;;;;;;;;;;5093139;28;20707;-63
2022/09/19 05:50:52;;;;;;;12.88;1.70;;;;;;;;;;5085649;28;20520;-63
2022/09/19 05:56:04;;;;;;;14.10;2.40;;;;;;;;;;5088776;28;20437;-63
2022/09/19 05:58:31;;;;;;;11.43;2.40;;;;;;;;;;5097685;28;20093;-64
2022/09/19 06:00:57;;;;;;;16.45;2.20;;;;;;;;;;5074600;28;20096;-64
2022/09/19 06:03:23;;;;;;;10.75;1.88;;;;;;;;;;5090463;28;20032;-63
2022/09/19 06:05:55;;;;;;;11.65;2.08;;;;;;;;;;5087687;28;20047;-63
2022/09/19 06:08:22;;;;;;;12.82;1.77;;;;;;;;;;5090488;28;20040;-64
2022/09/19 06:10:49;;;;;;;14.68;1.60;;;;;;;;;;5092351;28;20545;-64
2022/09/19 06:14:13;;;;;;;9.68;1.88;;;;;;;;;;5113239;28;20039;-64
2022/09/19 06:16:10;;;;;;;11.93;1.73;;;;;;;;;;5109943;28;20043;-64
2022/09/19 06:18:36;;;;;;;14.18;2.22;;;;;;;;;;5102088;22;20513;-63
2022/09/19 06:21:02;;;;;;;13.10;2.83;;;;;;;;;;5048312;28;20052;-63
2022/09/19 06:23:28;;;;;;;9.90;1.65;;;;;;;;;;5040358;28;20037;-64
2022/09/19 06:25:54;;;;;;;12.82;2.15;;;;;;;;;;5032092;28;20399;-63
2022/09/19 06:28:20;;;;;;;11.80;1.90;;;;;;;;;;5048797;28;20045;-64
2022/09/19 06:30:45;;;;;;;10.48;1.75;;;;;;;;;;5011748;28;20042;-64
2022/09/19 06:33:11;;;;;;;11.27;1.92;;;;;;;;;;5036576;28;20133;-64
2022/09/19 06:35:37;;;;;;;12.70;3.03;;;;;;;;;;5038673;28;20048;-64
2022/09/19 06:38:07;;;;;;;7.18;1.40;;;;;;;;;;5023977;28;20046;-64
2022/09/19 06:40:36;;;;;;;18.65;2.17;;;;;;;;;;5013855;28;20807;-64
2022/09/19 06:43:03;;;;;;;12.90;1.83;;;;;;;;;;5023008;28;20073;-64
2022/09/19 06:45:37;;;;;;;14.80;1.70;;;;;;;;;;5028137;28;20048;-64
2022/09/19 06:48:04;;;;;;;13.13;1.80;;;;;;;;;;5032381;28;20565;-64
2022/09/19 06:50:31;;;;;;;8.85;1.90;;;;;;;;;;5035088;28;20049;-64
2022/09/19 06:52:57;;;;;;;14.90;2.00;;;;;;;;;;5032712;28;20116;-64
2022/09/19 06:55:25;;;;;;;12.57;1.95;;;;;;;;;;5039664;28;20099;-64
2022/09/19 06:57:58;;;;;;;14.70;2.00;;;;;;;;;;5031155;28;20117;-64
2022/09/19 07:00:25;;;;;;;10.65;2.10;;;;;;;;;;5030050;28;20033;-64
2022/09/19 07:02:53;;;;;;;7.82;1.50;;;;;;;;;;5023797;28;20092;-64
2022/09/19 07:05:19;;;;;;;13.13;2.50;;;;;;;;;;5032027;28;20084;-64
2022/09/19 07:07:45;;;;;;;13.82;1.90;;;;;;;;;;5023835;28;20081;-64
2022/09/19 07:10:11;;;;;;;17.23;2.10;;;;;;;;;;5026778;28;20041;-64
2022/09/19 07:12:37;;;;;;;13.27;1.70;;;;;;;;;;5029779;28;20091;-64
2022/09/19 07:15:03;;;;;;;11.35;1.73;;;;;;;;;;5046741;28;20449;-64
2022/09/19 07:17:29;;;;;;;10.13;2.00;;;;;;;;;;5051447;28;20102;-64
2022/09/19 07:19:55;;;;;;;11.98;1.80;;;;;;;;;;5045296;28;20030;-64
2022/09/19 07:22:22;;;;;;;10.25;1.50;;;;;;;;;;5031465;28;20487;-64
2022/09/19 07:24:49;;;;;;;10.25;2.17;;;;;;;;;;5031342;28;20497;-64
2022/09/19 07:27:15;;;;;;;6.82;1.45;;;;;;;;;;5030203;28;20419;-64
2022/09/19 07:29:42;;;;;;;9.52;1.90;;;;;;;;;;5025604;28;20045;-64
2022/09/19 07:32:08;;;;;;;10.40;1.80;;;;;;;;;;5028877;28;20033;-64
2022/09/19 07:34:35;;;;;;;10.23;1.50;;;;;;;;;;5031650;28;20088;-64
2022/09/19 07:37:01;;;;;;;8.82;1.67;;;;;;;;;;5037848;28;20037;-64
2022/09/19 07:39:27;;;;;;;9.05;1.67;;;;;;;;;;5050633;28;20049;-64
2022/09/19 07:41:53;;;;;;;7.57;1.65;;;;;;;;;;5031301;28;20044;-64
2022/09/19 07:44:19;;;;;;;14.00;1.70;;;;;;;;;;5052908;28;20033;-64
2022/09/19 07:47:26;;;;;;;13.07;1.70;;;;;;;;;;5045733;28;20056;-64
2022/09/19 07:49:31;;;;;;;11.57;2.00;;;;;;;;;;5046076;28;20045;-63
2022/09/19 07:51:57;;;;;;;13.00;1.90;;;;;;;;;;5044692;28;20045;-64
2022/09/19 07:54:23;;;;;;;10.73;1.48;;;;;;;;;;5044907;28;20673;-64
2022/09/19 07:56:49;;;;;;;8.10;1.48;;;;;;;;;;5034570;28;20037;-64
2022/09/19 07:59:15;;;;;;;7.55;1.98;;;;;;;;;;5026486;28;20455;-64
2022/09/19 08:01:41;;;;;;;12.90;1.63;;;;;;;;;;5034021;28;20047;-64
2022/09/19 08:04:07;;;;;;;8.57;1.90;;;;;;;;;;5036971;28;20553;-64
2022/09/19 08:06:33;;;;;;;10.07;1.58;;;;;;;;;;5044669;28;20501;-64
2022/09/19 08:08:59;;;;;;;15.88;1.83;;;;;;;;;;5026953;28;20041;-64
2022/09/19 08:11:25;;;;;;;7.97;1.50;;;;;;;;;;5031376;28;20051;-64
2022/09/19 08:13:52;;;;;;;10.85;1.65;;;;;;;;;;5029574;28;20128;-64
2022/09/19 08:16:18;;;;;;;7.80;1.58;;;;;;;;;;5036365;28;20037;-64
2022/09/19 08:18:44;;;;;;;5.35;1.40;;;;;;;;;;5037478;28;20127;-64
2022/09/19 08:21:11;;;;;;;11.52;2.03;;;;;;;;;;5054539;28;20072;-64
2022/09/19 08:23:37;;;;;;;11.43;1.80;;;;;;;;;;5054463;28;20441;-64
2022/09/19 08:26:04;;;;;;;12.88;1.90;;;;;;;;;;5054457;28;20044;-64
2022/09/19 08:28:30;;;;;;;10.23;1.90;;;;;;;;;;5037524;28;20037;-64
2022/09/19 08:31:00;;;;;;;14.25;1.77;;;;;;;;;;5034211;28;20038;-64
2022/09/19 08:33:26;;;;;;;12.88;1.83;;;;;;;;;;5041661;28;20044;-64
2022/09/19 08:35:52;;;;;;;12.70;1.95;;;;;;;;;;5048929;28;20037;-64
2022/09/19 08:38:19;;;;;;;9.07;1.35;;;;;;;;;;5054430;28;20437;-64
2022/09/19 08:40:56;;;;;;;11.98;1.52;;;;;;;;;;5053588;28;20079;-64
2022/09/19 08:43:22;;;;;;;13.00;1.55;;;;;;;;;;5035912;28;20033;-64
2022/09/19 08:46:06;;;;;;;9.23;1.63;;;;;;;;;;5032443;28;20418;-64
2022/09/19 08:48:53;;;;;;;11.35;2.00;;;;;;;;;;5033717;28;20422;-64
2022/09/19 08:51:39;;;;;;;8.90;1.38;;;;;;;;;;5023922;28;20046;-64
2022/09/19 08:54:14;;;;;;;10.80;2.00;;;;;;;;;;5033363;28;20041;-63
2022/09/19 08:56:40;;;;;;;10.07;1.55;;;;;;;;;;5033086;28;20128;-64
2022/09/19 08:59:11;;;;;;;11.82;1.85;;;;;;;;;;5032811;28;20095;-64
2022/09/19 09:01:37;;;;;;;14.27;2.05;;;;;;;;;;5041543;28;20041;-64
2022/09/19 09:04:12;;;;;;;12.20;1.83;;;;;;;;;;5049546;28;20142;-64
2022/09/19 09:06:44;;;;;;;15.15;2.28;;;;;;;;;;5053999;28;20400;-64
2022/09/19 09:09:21;;;;;;;13.63;2.17;;;;;;;;;;5036255;28;20033;-64
2022/09/19 09:11:58;;;;;;;10.40;1.90;;;;;;;;;;5045894;28;20044;-64
2022/09/19 09:14:36;;;;;;;13.68;1.92;;;;;;;;;;5034841;28;20132;-65
2022/09/19 09:17:05;;;;;;;9.18;2.00;;;;;;;;;;5033317;28;20045;-65
2022/09/19 09:19:34;;;;;;;11.38;1.85;;;;;;;;;;5033398;28;20037;-65
2022/09/19 09:22:03;;;;;;;12.30;1.92;;;;;;;;;;5029875;28;20137;-65
2022/09/19 09:24:32;;;;;;;11.10;2.08;;;;;;;;;;5029536;28;20106;-64
2022/09/19 09:27:00;;;;;;;10.50;1.85;;;;;;;;;;5038449;28;20494;-64
2022/09/19 09:29:32;;;;;;;11.90;1.80;;;;;;;;;;5023860;28;20042;-65
2022/09/19 09:32:01;;;;;;;13.30;2.05;;;;;;;;;;5041453;28;20037;-65
2022/09/19 09:34:28;;;;;;;10.48;1.70;;;;;;;;;;5047879;28;20518;-65
2022/09/19 09:36:58;;;;;;;9.98;1.70;;;;;;;;;;5030655;28;20514;-65
2022/09/19 09:39:25;;;;;;;10.50;2.13;;;;;;;;;;5045819;28;20045;-65
2022/09/19 09:41:54;;;;;;;11.38;1.65;;;;;;;;;;5044972;28;20052;-65
2022/09/19 09:44:28;;;;;;;10.25;1.95;;;;;;;;;;5030129;28;20056;-65
2022/09/19 09:46:54;;;;;;;12.27;2.10;;;;;;;;;;5028282;28;20053;-65
2022/09/19 09:49:22;;;;;;;9.43;1.63;;;;;;;;;;5032310;28;20045;-65
2022/09/19 09:52:07;;;;;;;11.95;2.45;;;;;;;;;;5032655;28;20045;-65
2022/09/19 09:57:33;;;;;;;5.78;1.15;;;;;;;;;;5040224;28;20123;-65
2022/09/19 10:05:47;;;;;;;11.07;1.65;;;;;;;;;;5025661;28;20041;-65
2022/09/19 10:08:51;;;;;;;9.48;1.70;;;;;;;;;;5040919;28;20054;-65
2022/09/19 10:11:18;;;;;;;8.70;1.67;;;;;;;;;;4971169;28;20524;-65
2022/09/19 10:13:49;;;;;;;11.10;1.50;;;;;;;;;;5005005;28;20120;-65
2022/09/19 10:16:17;;;;;;;10.82;1.92;;;;;;;;;;5012852;28;20052;-65
2022/09/19 10:18:45;;;;;;;8.27;1.85;;;;;;;;;;5012392;28;20169;-64
2022/09/19 10:21:12;;;;;;;8.85;1.60;;;;;;;;;;5030711;28;20079;-64
2022/09/19 10:23:42;;;;;;;15.00;2.45;;;;;;;;;;5040770;28;20041;-64
2022/09/19 10:26:15;;;;;;;9.60;1.83;;;;;;;;;;5032677;28;20045;-64
2022/09/19 10:28:48;;;;;;;11.68;1.70;;;;;;;;;;5031681;28;20099;-64
2022/09/19 10:31:23;;;;;;;11.43;2.05;;;;;;;;;;5032487;28;20041;-64
2022/09/19 10:33:50;;;;;;;14.90;2.00;;;;;;;;;;5031580;28;20042;-64
2022/09/19 10:36:16;;;;;;;14.15;1.75;;;;;;;;;;5040748;28;20041;-64
2022/09/19 10:38:49;;;;;;;10.95;2.53;;;;;;;;;;5042421;28;20059;-64
2022/09/19 10:41:19;;;;;;;4.95;0.80;;;;;;;;;;5052132;28;20482;-64
2022/09/19 10:43:47;;;;;;;6.63;1.10;;;;;;;;;;5051681;28;20049;-64
2022/09/19 10:46:17;;;;;;;6.35;1.20;;;;;;;;;;5052231;28;20056;-64
2022/09/19 10:48:50;;;;;;;8.80;1.70;;;;;;;;;;5051580;28;20543;-64
2022/09/19 10:51:16;;;;;;;13.90;2.22;;;;;;;;;;5044687;28;20044;-64
2022/09/19 10:53:48;;;;;;;10.07;1.80;;;;;;;;;;5037786;28;20534;-64
2022/09/19 10:56:26;;;;;;;7.22;1.23;;;;;;;;;;5032011;28;20122;-64
2022/09/19 10:59:04;;;;;;;9.13;1.25;;;;;;;;;;5031805;28;20076;-65
2022/09/19 11:01:30;;;;;;;6.78;1.38;;;;;;;;;;5031376;28;20116;-64
2022/09/19 11:04:05;;;;;;;6.35;1.13;;;;;;;;;;5031601;28;20048;-64
2022/09/19 11:06:32;;;;;;;5.13;0.98;;;;;;;;;;5040880;28;20120;-65
2022/09/19 11:09:00;;;;;;;2.25;0.60;;;;;;;;;;5036318;28;20049;-65
2022/09/19 11:11:38;;;;;;;3.67;0.60;;;;;;;;;;5031669;28;20084;-65
2022/09/19 11:14:08;;;;;;;2.85;0.68;;;;;;;;;;5031466;28;20053;-65
2022/09/19 11:16:51;;;;;;;5.22;0.60;;;;;;;;;;5031123;28;20056;-65
2022/09/19 11:19:20;;;;;;;3.70;0.70;;;;;;;;;;5037818;28;20041;-65
2022/09/19 11:21:46;;;;;;;6.40;1.00;;;;;;;;;;5035632;28;20499;-65
2022/09/19 11:24:31;;;;;;;3.55;0.80;;;;;;;;;;5030724;28;20079;-65
2022/09/19 11:27:03;;;;;;;7.30;1.17;;;;;;;;;;5044684;28;20588;-66
2022/09/19 11:29:35;;;;;;;8.13;1.27;;;;;;;;;;5042520;28;20128;-65
2022/09/19 11:32:08;;;;;;;8.15;1.23;;;;;;;;;;5051656;28;20045;-65
2022/09/19 11:34:56;;;;;;;8.50;1.48;;;;;;;;;;5044952;28;20596;-65
2022/09/19 11:37:29;;;;;;;5.65;1.10;;;;;;;;;;5039500;28;20037;-65
2022/09/19 11:39:58;;;;;;;8.15;1.40;;;;;;;;;;5030790;28;20111;-65
2022/09/19 11:42:34;;;;;;;8.60;1.55;;;;;;;;;;5031680;28;20042;-65
2022/09/19 11:45:03;;;;;;;6.32;1.25;;;;;;;;;;5037319;28;20040;-65
2022/09/19 11:47:29;;;;;;;9.48;1.52;;;;;;;;;;5043126;28;20411;-65
2022/09/19 11:50:08;;;;;;;7.90;1.55;;;;;;;;;;5046387;28;20037;-65
2022/09/19 11:52:41;;;;;;;9.90;1.50;;;;;;;;;;5031265;28;20042;-65
2022/09/19 11:55:13;;;;;;;8.45;1.63;;;;;;;;;;5031068;28;20052;-65
2022/09/19 11:57:41;;;;;;;8.00;1.63;;;;;;;;;;5030590;28;20084;-64
2022/09/19 12:00:13;;;;;;;13.23;1.63;;;;;;;;;;5038864;28;20087;-65
2022/09/19 12:02:46;;;;;;;8.55;1.20;;;;;;;;;;5050956;28;20548;-65
2022/09/19 12:05:24;;;;;;;14.15;2.22;;;;;;;;;;5035754;28;20050;-64
2022/09/19 12:08:09;;;;;;;12.55;2.13;;;;;;;;;;5030643;28;20041;-65
2022/09/19 12:10:43;;;;;;;13.32;2.25;;;;;;;;;;5029700;28;20045;-63
2022/09/19 12:13:16;;;;;;;10.60;1.92;;;;;;;;;;5038318;28;20484;-63
2022/09/19 12:15:45;;;;;;;7.93;1.58;;;;;;;;;;5044436;28;20045;-63
2022/09/19 12:18:11;;;;;;;6.85;1.40;;;;;;;;;;5050665;28;20128;-63
2022/09/19 12:20:41;;;;;;;9.95;1.90;;;;;;;;;;5067461;22;20068;-64
2022/09/19 12:26:12;;;;;;;8.07;1.88;;;;;;;;;;5049969;28;20444;-64
2022/09/19 12:28:44;;;;;;;8.18;1.30;;;;;;;;;;5045069;28;20490;-64
2022/09/19 12:31:14;;;;;;;6.57;1.30;;;;;;;;;;5071504;28;20075;-65
2022/09/19 12:33:46;;;;;;;3.63;1.00;;;;;;;;;;5072436;28;20045;-64
2022/09/19 12:36:32;;;;;;;6.30;1.10;;;;;;;;;;5042252;28;20487;-64
2022/09/19 12:39:12;;;;;;;9.85;1.65;;;;;;;;;;5074207;28;20036;-64
2022/09/19 12:41:43;;;;;;;5.55;1.35;;;;;;;;;;5063362;28;20041;-64
2022/09/19 12:44:34;;;;;;;8.18;1.02;;;;;;;;;;5046863;28;20025;-64
2022/09/19 12:47:16;;;;;;;8.07;1.08;;;;;;;;;;5039624;28;20049;-64
2022/09/19 12:49:46;;;;;;;5.10;0.95;;;;;;;;;;5067364;28;20529;-64
2022/09/19 12:52:21;;;;;;;8.32;1.23;;;;;;;;;;5071831;28;20045;-64
2022/09/19 12:54:53;;;;;;;4.07;1.10;;;;;;;;;;5048488;28;20048;-64
2022/09/19 12:57:24;;;;;;;6.03;0.95;;;;;;;;;;5058168;28;20033;-63
2022/09/19 12:59:51;;;;;;;5.90;1.10;;;;;;;;;;5054672;28;20781;-64
2022/09/19 13:02:23;;;;;;;5.15;1.13;;;;;;;;;;5061031;28;20037;-63
2022/09/19 13:04:52;;;;;;;4.32;0.93;;;;;;;;;;5061616;28;20117;-63
2022/09/19 13:07:30;;;;;;;3.88;1.45;;;;;;;;;;5064489;28;20090;-63
2022/09/19 13:09:56;;;;;;;7.80;1.33;;;;;;;;;;5062868;28;20522;-63
2022/09/19 13:12:29;;;;;;;6.45;1.67;;;;;;;;;;5063032;28;20029;-63
2022/09/19 13:15:02;;;;;;;5.75;1.42;;;;;;;;;;5072687;28;20048;-64
2022/09/19 13:25:49;;;;;;;10.18;1.45;;;;;;;;;;5065859;28;20486;-63
2022/09/19 13:28:23;;;;;;;11.45;2.10;;;;;;;;;;5057721;28;20049;-63
2022/09/19 13:31:00;;;;;;;9.82;2.05;;;;;;;;;;5055775;28;20572;-64
2022/09/19 13:33:35;;;;;;;10.90;1.70;;;;;;;;;;5071304;28;20413;-64
2022/09/19 13:36:09;;;;;;;8.18;1.30;;;;;;;;;;5061779;28;20406;-64
2022/09/19 13:38:38;;;;;;;7.60;1.30;;;;;;;;;;5064655;28;20506;-64
2022/09/19 13:41:06;;;;;;;10.27;1.75;;;;;;;;;;5072248;28;20037;-64
2022/09/19 13:43:46;;;;;;;9.13;1.80;;;;;;;;;;5070745;28;20040;-64
2022/09/19 13:46:17;;;;;;;9.38;1.88;;;;;;;;;;5072838;28;20494;-64
2022/09/19 13:48:49;;;;;;;9.57;1.25;;;;;;;;;;5073070;28;20068;-64
2022/09/19 13:51:23;;;;;;;8.82;1.60;;;;;;;;;;5072379;28;20051;-65
2022/09/19 13:54:09;;;;;;;10.25;1.70;;;;;;;;;;5073151;28;20040;-65
2022/09/19 13:56:36;;;;;;;9.88;1.88;;;;;;;;;;5071521;28;20076;-65
2022/09/19 13:59:11;;;;;;;9.68;2.10;;;;;;;;;;5060534;28;20546;-65
2022/09/19 14:01:39;;;;;;;9.10;1.60;;;;;;;;;;5052421;28;20045;-65
2022/09/19 14:07:00;;;;;;;6.45;1.45;;;;;;;;;;5052311;28;20076;-64
2022/09/19 14:09:35;;;;;;;10.07;1.70;;;;;;;;;;5060055;28;20405;-64
2022/09/19 14:12:04;;;;;;;6.32;1.38;;;;;;;;;;5065163;28;20123;-64
2022/09/19 14:14:47;;;;;;;10.45;1.27;;;;;;;;;;5068784;28;20131;-65
2022/09/19 14:17:19;;;;;;;8.57;1.50;;;;;;;;;;5072062;28;20045;-64
2022/09/19 14:19:48;;;;;;;8.68;1.67;;;;;;;;;;5067938;28;20115;-64
2022/09/19 14:22:34;;;;;;;10.73;1.70;;;;;;;;;;5064794;28;20050;-64
2022/09/19 14:25:18;;;;;;;13.63;2.20;;;;;;;;;;5069840;28;20036;-64
2022/09/19 14:27:50;;;;;;;9.38;2.05;;;;;;;;;;5066885;28;20459;-64
2022/09/19 14:30:23;;;;;;;8.10;2.38;;;;;;;;;;5065822;28;20510;-64
2022/09/19 14:33:08;;;;;;;12.77;1.88;;;;;;;;;;5061995;28;20047;-64
2022/09/19 14:35:44;;;;;;;9.32;1.98;;;;;;;;;;5068235;28;20040;-64
2022/09/19 14:38:29;;;;;;;10.32;2.10;;;;;;;;;;5068639;28;20117;-64
2022/09/19 14:41:05;;;;;;;12.52;1.95;;;;;;;;;;5057161;28;20032;-63
2022/09/19 14:43:50;;;;;;;12.65;1.77;;;;;;;;;;5066352;28;20486;-63
2022/09/19 14:46:26;;;;;;;11.95;1.67;;;;;;;;;;5061627;28;20037;-64
2022/09/19 14:49:10;;;;;;;15.82;2.55;;;;;;;;;;5060539;28;20090;-63
2022/09/19 14:51:42;;;;;;;10.38;1.70;;;;;;;;;;5063760;28;20080;-64
2022/09/19 14:54:16;;;;;;;13.90;2.17;;;;;;;;;;5070210;28;20357;-64
2022/09/19 14:57:02;;;;;;;8.90;1.55;;;;;;;;;;5061738;28;20045;-65
2022/09/19 14:59:32;;;;;;;11.35;1.90;;;;;;;;;;5064597;28;20036;-65
2022/09/19 15:02:13;;;;;;;12.05;2.00;;;;;;;;;;5059790;28;20044;-64
2022/09/19 15:04:40;;;;;;;13.23;2.92;;;;;;;;;;5067522;28;20123;-65
2022/09/19 15:07:06;;;;;;;9.05;2.25;;;;;;;;;;5068310;28;20520;-64
2022/09/19 15:09:35;;;;;;;9.60;1.58;;;;;;;;;;5065291;28;20127;-65
2022/09/19 15:12:10;;;;;;;12.98;1.60;;;;;;;;;;5060317;28;20049;-65
2022/09/19 15:14:41;;;;;;;13.05;1.92;;;;;;;;;;5063910;28;20052;-64
2022/09/19 15:17:11;;;;;;;13.60;1.83;;;;;;;;;;5070510;28;20098;-64
2022/09/19 15:19:40;;;;;;;15.10;2.03;;;;;;;;;;5065033;28;20075;-65
2022/09/19 15:22:13;;;;;;;10.18;1.50;;;;;;;;;;5071493;28;20040;-65
2022/09/19 15:24:43;;;;;;;11.77;1.95;;;;;;;;;;5059361;28;20037;-65